LiveATC.Net - Listen to live air traffic control over the Internet!


ICAO: KPVU  IATA: PVU   Airport: Provo Municipal Airport
City: Provo   State/Province: Utah
Country: United States   Continent: North America
KPVU METAR Weather: KPVU 241215Z AUTO 12009KT 10SM CLR 16/01 A3010 RMK AO1
KPVU Flight Activity (FlightAware)
KPVU Airport Info   (AirNav) (iFlightPlanner)
KPVU VFR Sectional Chart   (iFlightPlanner) 
KPVU IFR Low Chart   (iFlightPlanner) 
KPVU Tower
Feed Status: UP   Listeners: 0
Listen right in your browser - requires Flash (in browser, requires Flash)
Click here to listen with your own player (launches your MP3 player)
KPVU Tower Audio Archives
FacilityFrequency
Provo Tower125.300


NOTICE

Unauthorized use prohibited. See LiveATC.net Terms of Service


Find LiveATC Audio Streams


Airport/ARTCC Code

Frequency
(e.g., 124.400, 128.75)
Site-wide search

Browse LiveATC Feeds
LiveATC Coverage Map
Top 50 LiveATC Feeds
Bad Weather Areas

LiveATC FAQ
Offer a LiveATC Feed
Contact LiveATC.net
Press Inquiries

LiveATC on iPhone
LiveATC on Android

Windows Phone
Windows 8/10

LiveATC Mobile
(Mobile browser)

ATC Audio Archives
Interesting Recordings

LiveATC Forums


Home Page
About LiveATC.net
Make a Donation
LiveATC Store

Terms of Use
Privacy Policy

Canadian Air Freqs

AIRMETs/SIGMETs

FAA Airport Status
Nat'l Airspace Status
Arrival Demand Charts


Server Software By:
Icecast.org
Liquidsoap